Time;durP1;ratioP1;P1;durP2;ratioP2;P2;SDS_P1;SDS_P2;PMS_P1;PMS_P2;Temp;Humidity;BMP_temperature;BMP_pressure;BME280_temperature;BME280_humidity;BME280_pressure;Samples;Min_cycle;Max_cycle;Signal;HPM_P1;HPM_P2
2023/08/02 00:01:47;;;;;;;392.05;365.70;;;14.80;85.10;;;;;;6218081;23;20031;-91
2023/08/02 00:04:14;;;;;;;381.27;355.55;;;14.80;85.10;;;;;;6177917;23;20103;-90
2023/08/02 00:06:40;;;;;;;394.30;368.05;;;14.80;85.10;;;;;;6212136;23;20641;-91
2023/08/02 00:09:06;;;;;;;389.73;363.05;;;14.70;85.10;;;;;;6213552;23;20016;-90
2023/08/02 00:11:36;;;;;;;368.75;344.48;;;14.80;85.10;;;;;;6193020;23;20027;-91
2023/08/02 00:14:02;;;;;;;375.70;350.67;;;14.70;85.20;;;;;;6215121;23;20021;-91
2023/08/02 00:16:28;;;;;;;375.13;350.13;;;14.70;85.20;;;;;;6163084;23;21004;-91
2023/08/02 00:18:54;;;;;;;619.78;572.58;;;14.70;85.10;;;;;;6212458;23;20038;-91
2023/08/02 00:21:19;;;;;;;398.58;372.02;;;14.70;85.20;;;;;;6168183;23;20024;-91
2023/08/02 00:23:45;;;;;;;369.13;344.60;;;14.70;85.20;;;;;;6214839;23;20020;-91
2023/08/02 00:26:14;;;;;;;366.30;341.92;;;14.70;85.20;;;;;;6191680;23;20117;-90
2023/08/02 00:28:39;;;;;;;375.20;349.35;;;14.70;85.20;;;;;;6184335;23;20051;-91
2023/08/02 00:31:08;;;;;;;385.45;358.38;;;14.70;85.20;;;;;;6218011;23;20016;-91
2023/08/02 00:33:34;;;;;;;374.42;350.10;;;14.70;85.30;;;;;;6190465;23;20074;-91
2023/08/02 00:36:00;;;;;;;368.98;344.83;;;14.70;85.30;;;;;;6192843;23;20012;-90
2023/08/02 00:38:25;;;;;;;385.90;360.05;;;14.70;85.40;;;;;;6159675;23;20027;-91
2023/08/02 00:40:51;;;;;;;394.60;368.35;;;14.70;85.40;;;;;;6192521;23;20016;-90
2023/08/02 00:43:20;;;;;;;496.27;459.02;;;14.70;85.50;;;;;;6190646;23;20157;-91
2023/08/02 00:45:46;;;;;;;378.42;352.95;;;14.70;85.40;;;;;;6193155;23;20016;-91
2023/08/02 00:48:12;;;;;;;388.35;362.00;;;14.70;85.40;;;;;;6206529;23;20334;-91
2023/08/02 00:50:38;;;;;;;371.33;346.85;;;14.70;85.40;;;;;;6217685;23;20411;-91
2023/08/02 00:53:10;;;;;;;365.23;340.92;;;14.70;85.50;;;;;;6214636;23;20024;-91
2023/08/02 00:55:42;;;;;;;371.00;346.15;;;14.70;85.50;;;;;;6172654;23;20024;-91
2023/08/02 00:58:08;;;;;;;377.35;351.88;;;14.70;85.40;;;;;;6181806;23;20111;-91
2023/08/02 01:00:34;;;;;;;360.70;336.50;;;14.70;85.50;;;;;;6192569;23;20020;-91
2023/08/02 01:03:00;;;;;;;371.40;346.17;;;14.70;85.50;;;;;;6165134;23;20316;-91
2023/08/02 01:05:29;;;;;;;623.22;575.90;;;14.70;85.50;;;;;;6217555;23;20028;-91
2023/08/02 01:08:02;;;;;;;368.83;344.05;;;14.70;85.60;;;;;;6207918;23;20171;-91
2023/08/02 01:11:04;;;;;;;378.65;353.75;;;14.70;85.60;;;;;;6217343;23;20064;-91
2023/08/02 01:13:33;;;;;;;351.65;327.67;;;14.70;85.60;;;;;;6201157;23;20081;-91
2023/08/02 01:16:00;;;;;;;368.08;343.27;;;14.70;85.70;;;;;;6217589;23;20020;-91
2023/08/02 01:18:26;;;;;;;369.88;345.27;;;14.70;85.60;;;;;;6206321;23;20020;-92
2023/08/02 01:20:52;;;;;;;394.05;367.27;;;14.70;85.70;;;;;;6217717;23;20067;-91
2023/08/02 01:23:21;;;;;;;374.42;348.30;;;14.70;85.70;;;;;;6214297;23;20025;-91
2023/08/02 01:25:50;;;;;;;374.38;349.38;;;14.70;85.70;;;;;;6217233;23;20022;-91
2023/08/02 01:28:23;;;;;;;374.23;350.08;;;14.70;85.70;;;;;;6193797;23;20027;-91
2023/08/02 01:30:51;;;;;;;368.48;343.17;;;14.70;85.70;;;;;;6217282;23;20020;-91
2023/08/02 01:33:17;;;;;;;373.17;347.73;;;14.70;85.70;;;;;;6214531;23;20028;-91
2023/08/02 01:35:43;;;;;;;365.50;340.35;;;14.70;85.70;;;;;;6217122;23;20015;-92
2023/08/02 01:38:18;;;;;;;397.02;369.42;;;14.70;85.70;;;;;;6209061;23;20473;-92
2023/08/02 01:40:44;;;;;;;356.65;332.60;;;14.70;85.70;;;;;;6192190;23;20020;-91
2023/08/02 01:43:15;;;;;;;371.85;346.75;;;14.70;85.70;;;;;;6151814;23;20031;-90
2023/08/02 01:45:46;;;;;;;369.98;345.17;;;14.70;85.60;;;;;;6207329;23;20328;-91
2023/08/02 01:48:14;;;;;;;363.35;338.45;;;14.80;85.60;;;;;;6182687;23;20089;-91
2023/08/02 01:50:40;;;;;;;372.73;346.83;;;14.70;85.60;;;;;;6216922;23;20027;-91
2023/08/02 01:53:08;;;;;;;360.52;336.50;;;14.80;85.60;;;;;;6189814;23;20020;-92
2023/08/02 01:55:35;;;;;;;359.98;335.58;;;14.70;85.50;;;;;;6195607;22;20505;-92
2023/08/02 01:58:01;;;;;;;361.98;337.38;;;14.70;85.50;;;;;;6199484;22;20023;-90
2023/08/02 02:00:29;;;;;;;378.17;352.33;;;14.70;85.50;;;;;;6221992;22;20512;-91
2023/08/02 02:02:57;;;;;;;360.67;336.50;;;14.70;85.50;;;;;;6206742;22;20094;-91
2023/08/02 02:05:41;;;;;;;589.28;544.28;;;14.70;85.50;;;;;;6221599;22;20022;-92
2023/08/02 02:08:07;;;;;;;344.33;321.15;;;14.70;85.50;;;;;;6189653;22;20016;-92
2023/08/02 02:10:33;;;;;;;367.98;342.90;;;14.70;85.40;;;;;;6220775;22;20031;-91
2023/08/02 02:12:59;;;;;;;361.23;335.85;;;14.70;85.40;;;;;;6206212;22;20149;-90
2023/08/02 02:15:28;;;;;;;384.02;356.98;;;14.70;85.40;;;;;;6221302;22;20027;-91
2023/08/02 02:17:57;;;;;;;366.02;340.73;;;14.70;85.40;;;;;;6188687;22;20019;-91
2023/08/02 02:20:29;;;;;;;387.25;360.60;;;14.70;85.40;;;;;;6196387;22;20114;-91
2023/08/02 02:22:57;;;;;;;368.17;342.50;;;14.70;85.40;;;;;;6219600;22;20020;-91
2023/08/02 02:25:23;;;;;;;354.40;330.45;;;14.70;85.40;;;;;;6221599;22;20016;-91
2023/08/02 02:27:51;;;;;;;366.63;340.63;;;14.70;85.30;;;;;;6172922;22;20836;-91
2023/08/02 02:30:17;;;;;;;357.70;332.85;;;14.70;85.30;;;;;;6221859;22;20095;-91
2023/08/02 02:32:43;;;;;;;357.48;333.10;;;14.70;85.30;;;;;;6204975;22;20417;-91
2023/08/02 02:35:14;;;;;;;359.27;334.38;;;14.60;85.30;;;;;;6221383;22;20077;-91
2023/08/02 02:37:41;;;;;;;;;;;14.70;85.30;;;;;;6214366;22;20079;-90
2023/08/02 02:40:08;;;;;;;381.80;354.70;;;14.60;85.30;;;;;;6221166;22;19915;-92
2023/08/02 02:42:34;;;;;;;371.98;346.60;;;14.60;85.30;;;;;;6219962;22;20016;-91
2023/08/02 02:45:04;;;;;;;364.45;338.48;;;14.60;85.30;;;;;;6222079;22;20012;-92
2023/08/02 02:47:35;;;;;;;365.20;339.80;;;14.70;85.40;;;;;;6210760;22;20061;-91
2023/08/02 02:50:02;;;;;;;370.85;344.50;;;14.70;85.30;;;;;;6220812;22;20019;-91
2023/08/02 02:52:31;;;;;;;364.35;339.67;;;14.60;85.40;;;;;;6219681;22;20024;-91
2023/08/02 02:55:38;;;;;;;374.08;347.63;;;14.60;85.30;;;;;;6196837;22;20094;-92
2023/08/02 02:57:57;;;;;;;553.70;511.60;;;14.60;85.30;;;;;;6212843;22;20046;-91
2023/08/02 03:00:25;;;;;;;370.63;344.48;;;14.60;85.30;;;;;;6221189;22;20366;-91
2023/08/02 03:02:54;;;;;;;379.83;353.30;;;14.60;85.40;;;;;;6169946;22;20047;-92
2023/08/02 03:05:22;;;;;;;368.63;343.30;;;14.70;85.30;;;;;;6221059;22;20121;-91
2023/08/02 03:07:48;;;;;;;366.42;341.48;;;14.60;85.30;;;;;;6187648;22;20049;-92
2023/08/02 03:10:14;;;;;;;375.73;349.88;;;14.60;85.20;;;;;;6220854;22;20027;-92
2023/08/02 03:12:43;;;;;;;363.63;339.48;;;14.60;85.20;;;;;;6194572;22;20019;-92
2023/08/02 03:15:09;;;;;;;368.88;343.67;;;14.60;85.20;;;;;;6197358;22;20039;-91
2023/08/02 03:17:35;;;;;;;349.42;325.23;;;14.60;85.10;;;;;;6188725;22;20030;-91
2023/08/02 03:20:00;;;;;;;370.73;346.20;;;14.60;85.20;;;;;;6198060;22;20016;-90
2023/08/02 03:22:29;;;;;;;351.52;327.25;;;14.60;85.20;;;;;;6195656;22;20041;-91
2023/08/02 03:24:58;;;;;;;359.63;333.92;;;14.60;85.20;;;;;;6223320;22;20065;-91
2023/08/02 03:27:27;;;;;;;360.45;335.52;;;14.60;85.20;;;;;;6188656;22;20019;-91
2023/08/02 03:29:53;;;;;;;395.92;368.95;;;14.60;85.10;;;;;;6222795;22;20016;-91
2023/08/02 03:32:19;;;;;;;380.88;354.20;;;14.60;85.10;;;;;;6221543;22;20015;-91
2023/08/02 03:34:45;;;;;;;368.45;343.55;;;14.60;85.10;;;;;;6223163;22;20019;-90
2023/08/02 03:37:13;;;;;;;356.20;332.58;;;14.60;85.10;;;;;;6190032;22;20019;-91
2023/08/02 03:39:39;;;;;;;387.80;361.92;;;14.60;85.10;;;;;;6222736;22;20098;-91
2023/08/02 03:42:05;;;;;;;368.45;342.70;;;14.60;85.10;;;;;;6220871;22;20059;-90
2023/08/02 03:44:33;;;;;;;376.20;350.05;;;14.60;85.10;;;;;;6223074;22;20016;-91
2023/08/02 03:46:59;;;;;;;364.75;338.40;;;14.60;85.10;;;;;;6215193;22;20018;-90
2023/08/02 03:49:28;;;;;;;379.20;353.63;;;14.60;85.00;;;;;;6221205;22;20095;-90
2023/08/02 03:52:02;;;;;;;348.40;324.02;;;14.60;85.00;;;;;;6223164;22;20023;-91
2023/08/02 03:58:10;;;;;;;;;;;14.50;85.00;;;;;;6247508;22;20073;-91
2023/08/02 04:00:36;;;;;;;384.10;356.23;;;14.50;85.10;;;;;;6242468;22;19923;-91
2023/08/02 04:03:02;;;;;;;389.05;361.42;;;14.50;85.10;;;;;;6251265;22;20019;-91
2023/08/02 04:05:27;;;;;;;380.25;353.88;;;14.50;85.10;;;;;;6228188;22;20038;-91
2023/08/02 04:07:53;;;;;;;370.10;344.10;;;14.50;85.10;;;;;;6205586;22;20019;-90
2023/08/02 04:10:22;;;;;;;371.80;345.33;;;14.50;85.10;;;;;;6223392;22;20027;-91
2023/08/02 04:12:51;;;;;;;369.40;343.65;;;14.50;85.20;;;;;;6220475;22;20016;-91
2023/08/02 04:15:22;;;;;;;564.88;522.75;;;14.50;85.20;;;;;;6200681;22;20047;-91
2023/08/02 04:17:49;;;;;;;361.20;335.38;;;14.50;85.20;;;;;;6190667;22;20031;-91
2023/08/02 04:20:15;;;;;;;389.77;360.83;;;14.50;85.30;;;;;;6224785;22;20403;-91
2023/08/02 04:22:43;;;;;;;428.13;395.92;;;14.50;85.40;;;;;;6221702;22;20031;-91
2023/08/02 04:25:09;;;;;;;552.05;510.50;;;14.50;85.30;;;;;;6223765;22;20011;-91
2023/08/02 04:27:37;;;;;;;375.05;347.95;;;14.50;85.30;;;;;;6163610;23;20399;-91
2023/08/02 04:30:13;;;;;;;356.08;329.80;;;14.50;85.20;;;;;;6206937;22;20054;-91
2023/08/02 04:32:38;;;;;;;378.00;349.88;;;14.50;85.20;;;;;;6220618;22;20054;-90
2023/08/02 04:35:05;;;;;;;358.75;332.45;;;14.50;85.10;;;;;;6223134;22;20028;-91
2023/08/02 04:37:30;;;;;;;552.10;510.80;;;14.50;85.10;;;;;;6189716;22;20015;-91
2023/08/02 04:39:56;;;;;;;371.85;344.27;;;14.50;85.10;;;;;;6222505;22;20020;-91
2023/08/02 04:42:26;;;;;;;389.75;361.33;;;14.50;85.00;;;;;;6220437;22;20405;-92
2023/08/02 04:44:59;;;;;;;358.83;332.95;;;14.50;84.90;;;;;;6222586;22;20484;-91
2023/08/02 04:47:25;;;;;;;441.98;411.08;;;14.50;84.80;;;;;;6212355;22;20012;-91
2023/08/02 04:49:51;;;;;;;380.48;353.38;;;14.50;84.80;;;;;;6197722;22;20492;-91
2023/08/02 04:52:17;;;;;;;453.08;420.98;;;14.50;84.90;;;;;;6170696;22;20054;-91
2023/08/02 04:54:43;;;;;;;582.25;537.80;;;14.50;84.90;;;;;;6222823;22;20442;-91
2023/08/02 04:57:12;;;;;;;370.42;344.13;;;14.50;84.80;;;;;;6163036;23;20018;-90
2023/08/02 04:59:38;;;;;;;373.73;347.65;;;14.50;84.80;;;;;;6191010;23;20467;-91
2023/08/02 05:02:06;;;;;;;375.38;347.95;;;14.50;84.70;;;;;;6161413;22;20016;-91
2023/08/02 05:04:32;;;;;;;368.20;342.55;;;14.50;84.70;;;;;;6189394;23;20451;-91
2023/08/02 05:06:58;;;;;;;349.52;324.42;;;14.50;84.70;;;;;;6208242;23;20099;-90
2023/08/02 05:09:24;;;;;;;375.40;347.70;;;14.50;84.60;;;;;;6190537;23;20024;-91
2023/08/02 05:11:53;;;;;;;458.55;426.55;;;14.50;84.70;;;;;;6216983;23;20086;-91
2023/08/02 05:14:18;;;;;;;356.20;331.05;;;14.50;84.50;;;;;;6215587;23;20028;-90
2023/08/02 05:16:47;;;;;;;374.60;347.77;;;14.40;84.50;;;;;;6185351;23;20020;-91
2023/08/02 05:19:12;;;;;;;377.30;350.05;;;14.50;84.50;;;;;;6212479;23;20039;-91
2023/08/02 05:21:38;;;;;;;390.27;362.13;;;14.50;84.50;;;;;;6213828;23;20016;-90
2023/08/02 05:24:04;;;;;;;378.13;351.17;;;14.40;84.40;;;;;;6177266;23;20344;-90
2023/08/02 05:26:33;;;;;;;393.35;364.98;;;14.50;84.30;;;;;;6209268;23;20064;-92
2023/08/02 05:28:59;;;;;;;396.60;368.45;;;14.50;84.40;;;;;;6210819;23;20024;-91
2023/08/02 05:31:25;;;;;;;390.40;362.10;;;14.40;84.30;;;;;;6192255;23;20489;-91
2023/08/02 05:33:53;;;;;;;365.67;340.15;;;14.50;84.30;;;;;;6214202;23;20087;-90
2023/08/02 05:36:19;;;;;;;372.70;345.95;;;14.40;84.40;;;;;;6214391;23;20028;-92
2023/08/02 05:38:45;;;;;;;386.67;358.88;;;14.40;84.30;;;;;;6210962;23;20027;-91
2023/08/02 05:41:11;;;;;;;584.00;540.35;;;14.50;84.20;;;;;;6217025;23;20343;-90
2023/08/02 05:43:41;;;;;;;390.17;361.63;;;14.50;84.20;;;;;;6213095;23;20016;-91
2023/08/02 05:46:10;;;;;;;522.78;484.38;;;14.50;84.30;;;;;;6192189;23;20714;-92
2023/08/02 05:48:36;;;;;;;564.63;522.47;;;14.50;84.30;;;;;;6182847;23;20026;-91
2023/08/02 05:51:02;;;;;;;390.90;362.95;;;14.50;84.20;;;;;;6216971;23;20099;-91
2023/08/02 05:53:30;;;;;;;378.50;352.55;;;14.60;84.30;;;;;;6213773;23;20473;-91
2023/08/02 05:55:57;;;;;;;600.15;555.17;;;14.60;84.30;;;;;;6217276;23;20031;-90
2023/08/02 05:58:26;;;;;;;582.88;537.97;;;14.70;84.20;;;;;;6205642;23;20024;-91
2023/08/02 06:00:52;;;;;;;366.15;341.27;;;14.70;84.20;;;;;;6217424;23;20339;-92
2023/08/02 06:03:18;;;;;;;384.65;357.33;;;14.70;84.10;;;;;;6187692;23;20053;-91
2023/08/02 06:05:48;;;;;;;380.45;353.92;;;14.70;84.10;;;;;;6217129;23;20020;-91
2023/08/02 06:08:14;;;;;;;387.30;360.03;;;14.70;84.10;;;;;;6181316;23;20064;-91
2023/08/02 06:10:40;;;;;;;399.58;371.55;;;14.70;84.10;;;;;;6191874;23;20016;-91
2023/08/02 06:13:11;;;;;;;386.15;358.65;;;14.70;84.00;;;;;;6214343;23;20031;-90
2023/08/02 06:15:39;;;;;;;580.40;535.73;;;14.80;84.30;;;;;;6217114;23;20027;-91
2023/08/02 06:18:05;;;;;;;389.45;361.55;;;14.80;84.20;;;;;;6182110;23;20331;-91
2023/08/02 06:20:31;;;;;;;386.70;359.38;;;14.90;84.00;;;;;;6217041;23;20052;-91
2023/08/02 06:22:57;;;;;;;383.70;356.83;;;15.00;84.00;;;;;;6214588;23;20019;-92
2023/08/02 06:25:27;;;;;;;448.60;415.55;;;15.00;83.70;;;;;;6217199;23;20047;-90
2023/08/02 06:27:53;;;;;;;389.25;361.50;;;15.00;83.70;;;;;;6206728;23;20043;-92
2023/08/02 06:30:21;;;;;;;395.77;367.73;;;15.00;83.60;;;;;;6217120;23;20066;-91
2023/08/02 06:32:47;;;;;;;377.77;351.48;;;15.00;83.60;;;;;;6213800;23;20024;-91
2023/08/02 06:35:13;;;;;;;380.15;353.95;;;15.00;83.90;;;;;;6216488;23;20099;-92
2023/08/02 06:37:39;;;;;;;389.77;362.67;;;15.00;83.50;;;;;;6182285;23;20024;-91
2023/08/02 06:40:05;;;;;;;393.38;365.48;;;15.00;83.40;;;;;;6215668;23;20020;-90
2023/08/02 06:42:31;;;;;;;520.95;481.77;;;15.00;83.50;;;;;;6214716;23;20332;-90
2023/08/02 06:44:57;;;;;;;394.08;366.08;;;15.00;83.50;;;;;;6191242;23;20039;-91
2023/08/02 06:47:23;;;;;;;575.75;531.35;;;15.00;83.70;;;;;;6177508;23;20034;-90
2023/08/02 06:49:49;;;;;;;612.58;564.47;;;15.10;83.70;;;;;;6195123;23;20079;-91
2023/08/02 06:52:17;;;;;;;382.65;356.25;;;15.10;83.20;;;;;;6214624;22;20020;-91
2023/08/02 06:54:50;;;;;;;399.50;371.40;;;15.10;83.30;;;;;;6214207;23;20091;-91
2023/08/02 06:57:36;;;;;;;406.85;378.00;;;15.10;83.30;;;;;;6206345;22;20845;-91
2023/08/02 07:00:03;;;;;;;392.85;365.23;;;15.10;83.40;;;;;;6191707;23;20024;-90
2023/08/02 07:02:28;;;;;;;379.98;353.50;;;15.20;83.40;;;;;;6159775;23;20455;-91
2023/08/02 07:04:57;;;;;;;387.45;360.33;;;15.20;83.20;;;;;;6144835;23;20058;-90
2023/08/02 07:07:25;;;;;;;385.52;358.73;;;15.20;83.00;;;;;;6179138;22;20020;-90
2023/08/02 07:09:51;;;;;;;398.52;369.70;;;15.20;83.20;;;;;;6199308;23;20054;-90
2023/08/02 07:12:20;;;;;;;403.27;374.52;;;15.20;83.50;;;;;;6198631;22;20016;-90
2023/08/02 07:14:48;;;;;;;411.83;381.33;;;15.20;83.00;;;;;;6224717;23;20652;-90
2023/08/02 07:17:17;;;;;;;412.60;383.80;;;15.20;82.90;;;;;;6202467;22;20024;-92
2023/08/02 07:19:45;;;;;;;387.55;360.73;;;15.30;83.10;;;;;;6202463;23;20020;-91
2023/08/02 07:22:17;;;;;;;395.60;368.33;;;15.30;83.00;;;;;;6151582;22;20024;-89
2023/08/02 07:24:43;;;;;;;401.05;373.38;;;15.30;83.00;;;;;;6201043;23;20020;-91
2023/08/02 07:27:12;;;;;;;419.65;389.77;;;15.40;83.30;;;;;;6153431;23;20027;-91
2023/08/02 07:29:38;;;;;;;396.30;368.27;;;15.30;83.00;;;;;;6179806;23;20077;-90
2023/08/02 07:32:04;;;;;;;406.42;377.65;;;15.30;82.80;;;;;;6190396;23;20015;-91
2023/08/02 07:34:36;;;;;;;395.00;368.08;;;15.40;83.10;;;;;;6151266;23;20051;-91
2023/08/02 07:37:02;;;;;;;409.13;380.45;;;15.40;83.20;;;;;;6196923;23;20234;-91
2023/08/02 07:39:28;;;;;;;395.85;367.65;;;15.40;83.00;;;;;;6177396;23;20016;-89
2023/08/02 07:41:57;;;;;;;401.70;373.95;;;15.40;83.20;;;;;;6176019;23;20020;-90
2023/08/02 07:44:22;;;;;;;394.38;366.63;;;15.40;83.20;;;;;;6153068;23;20024;-91
2023/08/02 07:46:51;;;;;;;394.17;366.92;;;15.40;83.10;;;;;;6174381;23;20019;-91
2023/08/02 07:49:20;;;;;;;401.70;373.95;;;15.40;83.10;;;;;;6200884;23;20020;-92
2023/08/02 07:51:46;;;;;;;521.05;480.95;;;15.40;82.90;;;;;;6203633;23;20930;-88
2023/08/02 07:54:15;;;;;;;414.48;385.58;;;15.40;82.90;;;;;;6174086;23;20185;-90
2023/08/02 07:56:50;;;;;;;401.95;373.45;;;15.40;82.70;;;;;;6201829;22;20632;-91
2023/08/02 07:59:16;;;;;;;580.65;536.85;;;15.40;82.80;;;;;;6151327;22;20560;-91
2023/08/02 08:01:42;;;;;;;656.10;594.22;;;15.40;82.90;;;;;;6183759;22;20023;-91
2023/08/02 08:04:08;;;;;;;385.02;358.05;;;15.50;82.90;;;;;;6208920;22;20035;-92
2023/08/02 08:06:34;;;;;;;607.95;561.03;;;15.50;83.00;;;;;;6206240;22;20047;-90
2023/08/02 08:09:03;;;;;;;414.42;385.38;;;15.50;82.90;;;;;;6203427;22;20020;-91
2023/08/02 08:11:31;;;;;;;389.67;362.70;;;15.50;83.00;;;;;;6207621;22;20093;-90
2023/08/02 08:13:57;;;;;;;389.88;363.17;;;15.40;82.60;;;;;;6179423;22;20095;-89
2023/08/02 08:16:26;;;;;;;596.15;550.55;;;15.40;82.80;;;;;;6155078;22;20102;-90
2023/08/02 08:18:55;;;;;;;396.60;368.85;;;15.40;82.80;;;;;;6164986;23;20051;-91
2023/08/02 08:21:26;;;;;;;593.78;548.42;;;15.40;82.90;;;;;;6206347;22;20110;-91
2023/08/02 08:23:52;;;;;;;378.85;353.33;;;15.40;82.80;;;;;;6203674;22;20035;-91
2023/08/02 08:26:21;;;;;;;406.38;378.52;;;15.30;83.00;;;;;;6180168;22;20012;-92
2023/08/02 08:28:47;;;;;;;404.05;375.33;;;15.30;83.00;;;;;;6199683;22;20020;-91
2023/08/02 08:31:12;;;;;;;404.08;375.77;;;15.30;83.20;;;;;;6181176;22;20012;-91
2023/08/02 08:33:51;;;;;;;;;;;;;;;;;;;;;
2023/08/02 08:36:22;;;;;;;387.63;360.45;;;15.30;83.60;;;;;;6206166;22;20450;-91
2023/08/02 08:38:48;;;;;;;415.73;386.83;;;15.20;83.50;;;;;;6200954;22;20731;-92
2023/08/02 08:41:17;;;;;;;424.88;393.50;;;15.20;83.50;;;;;;6204953;22;20019;-91
2023/08/02 08:43:44;;;;;;;407.95;379.45;;;15.10;83.60;;;;;;6178593;22;20023;-92
2023/08/02 08:46:13;;;;;;;596.75;551.65;;;15.00;83.60;;;;;;6205439;22;20835;-90
2023/08/02 08:48:42;;;;;;;408.48;379.83;;;15.00;83.70;;;;;;6164362;23;20035;-90
2023/08/02 08:51:13;;;;;;;605.13;559.58;;;15.00;83.90;;;;;;6177247;22;20058;-90
2023/08/02 08:53:46;;;;;;;425.48;395.88;;;15.00;84.00;;;;;;6178639;22;20415;-91
2023/08/02 08:56:15;;;;;;;394.55;367.48;;;15.00;84.10;;;;;;6205788;22;20058;-91
2023/08/02 08:58:41;;;;;;;524.47;484.45;;;14.90;84.20;;;;;;6162074;23;20016;-90
2023/08/02 09:01:10;;;;;;;394.75;366.85;;;14.90;84.30;;;;;;6200559;22;20015;-90
2023/08/02 09:03:37;;;;;;;387.25;360.15;;;14.90;84.40;;;;;;6201378;22;20035;-91
2023/08/02 09:06:26;;;;;;;409.48;379.52;;;14.90;84.40;;;;;;6205285;22;20016;-91
2023/08/02 09:08:55;;;;;;;379.35;352.63;;;14.90;84.40;;;;;;6199110;22;20031;-90
2023/08/02 09:11:21;;;;;;;566.33;523.50;;;14.80;84.50;;;;;;6178941;22;20016;-91
2023/08/02 09:13:46;;;;;;;399.17;370.10;;;14.80;84.60;;;;;;6201829;22;20024;-92
2023/08/02 09:16:15;;;;;;;382.45;355.17;;;14.70;84.70;;;;;;6205260;22;20016;-92
2023/08/02 09:18:44;;;;;;;374.48;347.15;;;14.70;84.80;;;;;;6198513;22;20022;-91
2023/08/02 09:21:14;;;;;;;377.15;349.98;;;14.70;85.00;;;;;;6180879;22;20023;-91
2023/08/02 09:24:00;;;;;;;537.92;497.92;;;14.70;85.00;;;;;;6168337;23;20020;-92
2023/08/02 09:26:27;;;;;;;365.38;339.17;;;14.60;85.10;;;;;;6183746;22;20093;-92
2023/08/02 09:29:09;;;;;;;394.45;366.33;;;14.60;85.10;;;;;;6163074;23;20127;-91
2023/08/02 09:31:43;;;;;;;387.45;360.30;;;14.60;85.20;;;;;;6207259;22;20035;-92
2023/08/02 09:34:10;;;;;;;378.90;351.17;;;14.60;85.30;;;;;;6191861;22;20106;-92
2023/08/02 09:36:43;;;;;;;360.98;335.33;;;14.70;85.50;;;;;;6178718;22;20016;-91
2023/08/02 09:39:10;;;;;;;503.48;467.20;;;14.70;85.50;;;;;;6181318;22;20673;-91
2023/08/02 09:41:36;;;;;;;369.40;343.42;;;14.70;85.70;;;;;;6207345;22;20019;-92
2023/08/02 09:44:03;;;;;;;451.20;418.23;;;14.70;85.80;;;;;;6202714;22;20015;-91
2023/08/02 09:46:54;;;;;;;381.08;353.95;;;14.80;85.90;;;;;;6204093;22;20007;-91
2023/08/02 09:49:21;;;;;;;476.77;441.05;;;14.80;85.70;;;;;;6218664;22;20023;-91
2023/08/02 09:51:47;;;;;;;373.38;345.65;;;14.90;85.80;;;;;;6236632;22;20441;-92
2023/08/02 09:54:22;;;;;;;364.92;338.30;;;14.90;85.90;;;;;;6233138;22;20144;-92
2023/08/02 09:57:20;;;;;;;398.15;368.75;;;14.90;85.80;;;;;;6197731;22;20168;-93
2023/08/02 10:00:02;;;;;;;365.23;339.48;;;14.90;85.80;;;;;;6114269;22;20336;-92
2023/08/02 10:02:29;;;;;;;380.45;353.02;;;14.90;85.90;;;;;;6162587;22;20851;-91
2023/08/02 10:05:20;;;;;;;471.55;438.25;;;14.90;85.90;;;;;;6180687;22;20629;-91
2023/08/02 10:07:52;;;;;;;462.38;428.92;;;15.00;85.80;;;;;;6197672;23;20123;-94
2023/08/02 10:10:52;;;;;;;;;;;;;;;;;;;;;
2023/08/02 10:13:30;;;;;;;480.10;445.15;;;15.00;85.70;;;;;;6227356;22;20194;-92
2023/08/02 10:15:57;;;;;;;354.50;329.17;;;14.90;85.80;;;;;;6204276;22;20630;-91
2023/08/02 10:18:24;;;;;;;368.90;342.70;;;14.90;85.80;;;;;;6127544;23;20103;-91
2023/08/02 10:21:17;;;;;;;482.48;447.25;;;14.90;85.80;;;;;;6199257;22;20015;-92
2023/08/02 10:24:13;;;;;;;362.38;336.65;;;14.90;85.90;;;;;;6202131;22;20024;-92
2023/08/02 10:26:48;;;;;;;376.23;349.25;;;14.90;85.80;;;;;;6200417;22;20242;-93
2023/08/02 10:29:17;;;;;;;482.75;446.40;;;14.90;85.90;;;;;;6186598;22;20059;-92
2023/08/02 10:32:53;;;;;;;464.90;431.08;;;14.90;86.10;;;;;;6230276;22;20016;-93
2023/08/02 10:35:58;;;;;;;378.40;350.15;;;14.90;86.20;;;;;;6211191;22;20057;-91
2023/08/02 10:38:43;;;;;;;383.70;355.67;;;15.00;86.30;;;;;;6228129;22;20027;-93
2023/08/02 10:45:04;;;;;;;356.55;331.45;;;15.00;86.50;;;;;;6076836;23;20053;-91
2023/08/02 10:47:59;;;;;;;590.35;545.08;;;15.10;86.60;;;;;;6097844;22;20023;-93
2023/08/02 10:50:55;;;;;;;;;;;;;;;;;;;;;
2023/08/02 10:54:11;;;;;;;;;;;;;;;;;;;;;
2023/08/02 10:57:05;;;;;;;334.67;311.38;;;15.20;86.50;;;;;;6254098;22;20739;-94
2023/08/02 10:59:40;;;;;;;375.00;347.52;;;15.20;86.60;;;;;;6199306;22;20794;-92
2023/08/02 11:05:39;;;;;;;359.95;334.90;;;15.30;86.70;;;;;;6152558;22;20024;-92
2023/08/02 11:08:25;;;;;;;442.48;410.17;;;15.30;86.70;;;;;;6157841;23;20837;-92
2023/08/02 11:13:45;;;;;;;;;;;15.30;86.80;;;;;;6191131;23;20078;-92
2023/08/02 11:20:35;;;;;;;;;;;;;;;;;;;;;
2023/08/02 11:27:03;;;;;;;589.28;544.47;;;15.50;87.00;;;;;;6239240;22;20019;-94
2023/08/02 11:29:47;;;;;;;;;;;;;;;;;;;;;
2023/08/02 11:32:25;;;;;;;353.77;329.50;;;15.50;87.00;;;;;;6258276;22;21058;-92
2023/08/02 11:35:00;;;;;;;353.13;329.27;;;15.50;87.00;;;;;;6234591;22;20246;-92
2023/08/02 11:37:29;;;;;;;394.02;366.15;;;15.50;87.10;;;;;;6203505;22;20145;-91
2023/08/02 11:40:11;;;;;;;606.92;559.53;;;15.50;87.10;;;;;;6259099;22;20501;-91
2023/08/02 11:43:58;;;;;;;655.88;603.35;;;15.60;87.00;;;;;;6209471;22;20023;-93
2023/08/02 11:46:26;;;;;;;359.17;335.55;;;15.60;87.10;;;;;;6208591;22;20769;-92
2023/08/02 11:49:06;;;;;;;638.88;587.88;;;15.60;87.20;;;;;;6219043;22;20019;-91
2023/08/02 11:51:32;;;;;;;369.40;344.35;;;15.60;87.10;;;;;;6236102;22;20581;-91
2023/08/02 11:54:38;;;;;;;411.73;381.45;;;15.60;87.20;;;;;;6219819;22;20045;-93
2023/08/02 11:57:21;;;;;;;392.73;365.25;;;15.70;87.30;;;;;;6229804;22;20023;-92
2023/08/02 11:59:59;;;;;;;673.97;619.83;;;15.80;87.40;;;;;;6213935;22;20073;-91
2023/08/02 12:02:30;;;;;;;455.58;423.80;;;15.90;87.50;;;;;;6192388;22;20020;-91
2023/08/02 12:05:19;;;;;;;675.00;622.27;;;16.00;87.60;;;;;;6191372;22;20163;-91
2023/08/02 12:07:44;;;;;;;489.92;455.23;;;16.20;87.90;;;;;;6183972;22;20024;-91
2023/08/02 12:10:40;;;;;;;;;;;;;;;;;;;;;
2023/08/02 12:13:17;;;;;;;466.67;433.95;;;16.60;88.00;;;;;;6215548;22;20024;-91
2023/08/02 12:16:13;;;;;;;732.92;672.47;;;16.60;87.40;;;;;;6226598;22;20080;-92
2023/08/02 12:18:56;;;;;;;772.40;706.28;;;16.70;87.20;;;;;;6187194;22;20026;-91
2023/08/02 12:21:26;;;;;;;521.60;483.05;;;16.70;86.80;;;;;;6239351;22;20019;-91
2023/08/02 12:23:54;;;;;;;778.55;709.03;;;16.70;86.60;;;;;;6235426;22;20097;-91
2023/08/02 12:26:47;;;;;;;;;;;;;;;;;;;;;
2023/08/02 12:29:30;;;;;;;787.90;716.38;;;16.80;86.00;;;;;;6256390;22;20023;-91
2023/08/02 12:31:59;;;;;;;775.42;706.80;;;17.00;86.40;;;;;;6209975;22;20027;-92
2023/08/02 12:34:28;;;;;;;786.65;713.22;;;17.00;86.40;;;;;;6205211;22;20019;-92
2023/08/02 12:36:56;;;;;;;487.33;451.73;;;17.00;86.00;;;;;;6203624;22;20500;-91
2023/08/02 12:39:26;;;;;;;571.55;528.17;;;17.10;85.70;;;;;;6233831;22;20023;-91
2023/08/02 12:44:57;;;;;;;443.48;412.15;;;17.00;85.40;;;;;;6194343;22;20032;-92
2023/08/02 12:47:23;;;;;;;767.90;699.22;;;17.10;85.50;;;;;;6172911;22;20024;-91
2023/08/02 12:49:57;;;;;;;766.00;696.17;;;17.20;85.90;;;;;;6205190;22;20572;-91
2023/08/02 12:52:23;;;;;;;806.35;729.33;;;17.40;86.00;;;;;;6180478;22;20020;-92
2023/08/02 12:54:49;;;;;;;816.63;739.00;;;17.50;86.40;;;;;;6203874;22;20438;-90
2023/08/02 12:57:27;;;;;;;573.65;529.30;;;17.60;85.50;;;;;;6191820;22;20443;-91
2023/08/02 12:59:55;;;;;;;806.05;730.85;;;17.70;85.10;;;;;;6196641;23;20024;-91
2023/08/02 13:02:26;;;;;;;860.53;773.95;;;17.90;85.30;;;;;;6167451;22;20024;-92